sensor_id;sensor_type;location;lat;lon;timestamp;P1;durP1;ratioP1;P2;durP2;ratioP2
51098;SDS011;37146;48.210;16.234;2022-07-22T00:00:49;8.38;;;7.07;;
51098;SDS011;37146;48.210;16.234;2022-07-22T00:03:15;9.35;;;7.50;;
51098;SDS011;37146;48.210;16.234;2022-07-22T00:05:40;12.18;;;7.70;;
51098;SDS011;37146;48.210;16.234;2022-07-22T00:08:05;9.93;;;6.93;;
51098;SDS011;37146;48.210;16.234;2022-07-22T00:10:31;8.40;;;7.05;;
51098;SDS011;37146;48.210;16.234;2022-07-22T00:12:56;9.52;;;7.47;;
51098;SDS011;37146;48.210;16.234;2022-07-22T00:15:22;9.85;;;7.82;;
51098;SDS011;37146;48.210;16.234;2022-07-22T00:17:47;12.40;;;8.02;;
51098;SDS011;37146;48.210;16.234;2022-07-22T00:20:12;9.35;;;7.38;;
51098;SDS011;37146;48.210;16.234;2022-07-22T00:22:38;9.32;;;7.65;;
51098;SDS011;37146;48.210;16.234;2022-07-22T00:25:03;8.85;;;7.65;;
51098;SDS011;37146;48.210;16.234;2022-07-22T00:27:29;8.95;;;7.32;;
51098;SDS011;37146;48.210;16.234;2022-07-22T00:29:55;10.50;;;8.10;;
51098;SDS011;37146;48.210;16.234;2022-07-22T00:32:20;8.75;;;7.65;;
51098;SDS011;37146;48.210;16.234;2022-07-22T00:34:45;9.68;;;7.80;;
51098;SDS011;37146;48.210;16.234;2022-07-22T00:37:11;9.25;;;7.60;;
51098;SDS011;37146;48.210;16.234;2022-07-22T00:39:36;9.48;;;8.07;;
51098;SDS011;37146;48.210;16.234;2022-07-22T00:42:02;8.55;;;7.32;;
51098;SDS011;37146;48.210;16.234;2022-07-22T00:44:28;12.30;;;7.68;;
51098;SDS011;37146;48.210;16.234;2022-07-22T00:46:53;10.07;;;7.53;;
51098;SDS011;37146;48.210;16.234;2022-07-22T00:49:19;10.55;;;7.80;;
51098;SDS011;37146;48.210;16.234;2022-07-22T00:51:45;9.82;;;7.80;;
51098;SDS011;37146;48.210;16.234;2022-07-22T00:54:11;8.93;;;7.57;;
51098;SDS011;37146;48.210;16.234;2022-07-22T00:56:37;11.85;;;7.88;;
51098;SDS011;37146;48.210;16.234;2022-07-22T00:59:04;12.30;;;8.45;;
51098;SDS011;37146;48.210;16.234;2022-07-22T01:01:31;9.15;;;7.78;;
51098;SDS011;37146;48.210;16.234;2022-07-22T01:03:57;9.73;;;7.55;;
51098;SDS011;37146;48.210;16.234;2022-07-22T01:06:23;10.38;;;8.13;;
51098;SDS011;37146;48.210;16.234;2022-07-22T01:08:48;10.15;;;7.72;;
51098;SDS011;37146;48.210;16.234;2022-07-22T01:11:15;8.43;;;7.45;;
51098;SDS011;37146;48.210;16.234;2022-07-22T01:13:42;9.73;;;7.38;;
51098;SDS011;37146;48.210;16.234;2022-07-22T01:16:09;12.60;;;7.72;;
51098;SDS011;37146;48.210;16.234;2022-07-22T01:18:35;8.55;;;7.63;;
51098;SDS011;37146;48.210;16.234;2022-07-22T01:21:02;9.35;;;7.32;;
51098;SDS011;37146;48.210;16.234;2022-07-22T01:23:29;10.38;;;7.78;;
51098;SDS011;37146;48.210;16.234;2022-07-22T01:25:54;8.38;;;7.45;;
51098;SDS011;37146;48.210;16.234;2022-07-22T01:28:20;10.35;;;8.10;;
51098;SDS011;37146;48.210;16.234;2022-07-22T01:30:46;10.20;;;7.68;;
51098;SDS011;37146;48.210;16.234;2022-07-22T01:33:11;12.25;;;7.68;;
51098;SDS011;37146;48.210;16.234;2022-07-22T01:35:37;9.38;;;7.43;;
51098;SDS011;37146;48.210;16.234;2022-07-22T01:38:02;10.88;;;7.85;;
51098;SDS011;37146;48.210;16.234;2022-07-22T01:40:28;11.13;;;8.10;;
51098;SDS011;37146;48.210;16.234;2022-07-22T01:42:53;10.52;;;8.00;;
51098;SDS011;37146;48.210;16.234;2022-07-22T01:45:19;12.18;;;8.30;;
51098;SDS011;37146;48.210;16.234;2022-07-22T01:47:44;11.32;;;8.25;;
51098;SDS011;37146;48.210;16.234;2022-07-22T01:50:10;8.85;;;7.63;;
51098;SDS011;37146;48.210;16.234;2022-07-22T01:52:36;11.68;;;7.80;;
51098;SDS011;37146;48.210;16.234;2022-07-22T01:55:03;10.60;;;7.82;;
51098;SDS011;37146;48.210;16.234;2022-07-22T01:57:30;9.82;;;7.55;;
51098;SDS011;37146;48.210;16.234;2022-07-22T01:59:55;10.93;;;8.30;;
51098;SDS011;37146;48.210;16.234;2022-07-22T02:02:20;11.35;;;8.18;;
51098;SDS011;37146;48.210;16.234;2022-07-22T02:04:46;10.23;;;8.05;;
51098;SDS011;37146;48.210;16.234;2022-07-22T02:07:11;9.05;;;8.10;;
51098;SDS011;37146;48.210;16.234;2022-07-22T02:09:37;9.68;;;8.35;;
51098;SDS011;37146;48.210;16.234;2022-07-22T02:12:02;10.80;;;8.00;;
51098;SDS011;37146;48.210;16.234;2022-07-22T02:14:28;10.13;;;7.90;;
51098;SDS011;37146;48.210;16.234;2022-07-22T02:16:53;9.60;;;8.27;;
51098;SDS011;37146;48.210;16.234;2022-07-22T02:19:19;9.77;;;7.80;;
51098;SDS011;37146;48.210;16.234;2022-07-22T02:21:44;11.50;;;8.35;;
51098;SDS011;37146;48.210;16.234;2022-07-22T02:24:10;11.43;;;8.23;;
51098;SDS011;37146;48.210;16.234;2022-07-22T02:26:35;9.40;;;7.88;;
51098;SDS011;37146;48.210;16.234;2022-07-22T02:29:00;12.15;;;8.70;;
51098;SDS011;37146;48.210;16.234;2022-07-22T02:31:26;11.18;;;8.18;;
51098;SDS011;37146;48.210;16.234;2022-07-22T02:33:51;11.02;;;8.57;;
51098;SDS011;37146;48.210;16.234;2022-07-22T02:36:17;9.90;;;8.48;;
51098;SDS011;37146;48.210;16.234;2022-07-22T02:38:42;9.82;;;8.40;;
51098;SDS011;37146;48.210;16.234;2022-07-22T02:41:07;9.57;;;8.63;;
51098;SDS011;37146;48.210;16.234;2022-07-22T02:43:33;11.50;;;8.70;;
51098;SDS011;37146;48.210;16.234;2022-07-22T02:45:58;9.93;;;8.27;;
51098;SDS011;37146;48.210;16.234;2022-07-22T02:48:24;11.40;;;8.40;;
51098;SDS011;37146;48.210;16.234;2022-07-22T02:50:49;10.30;;;8.60;;
51098;SDS011;37146;48.210;16.234;2022-07-22T02:53:15;9.25;;;8.13;;
51098;SDS011;37146;48.210;16.234;2022-07-22T02:55:40;14.45;;;9.18;;
51098;SDS011;37146;48.210;16.234;2022-07-22T02:58:06;12.27;;;8.80;;
51098;SDS011;37146;48.210;16.234;2022-07-22T03:00:33;12.13;;;8.63;;
51098;SDS011;37146;48.210;16.234;2022-07-22T03:02:59;10.57;;;8.70;;
51098;SDS011;37146;48.210;16.234;2022-07-22T03:05:24;9.68;;;8.20;;
51098;SDS011;37146;48.210;16.234;2022-07-22T03:07:49;10.88;;;8.82;;
51098;SDS011;37146;48.210;16.234;2022-07-22T03:10:15;10.65;;;8.65;;
51098;SDS011;37146;48.210;16.234;2022-07-22T03:12:40;10.55;;;8.48;;
51098;SDS011;37146;48.210;16.234;2022-07-22T03:15:06;11.07;;;8.95;;
51098;SDS011;37146;48.210;16.234;2022-07-22T03:17:35;9.52;;;8.25;;
51098;SDS011;37146;48.210;16.234;2022-07-22T03:20:06;10.23;;;8.63;;
51098;SDS011;37146;48.210;16.234;2022-07-22T03:22:33;12.05;;;8.77;;
51098;SDS011;37146;48.210;16.234;2022-07-22T03:24:59;12.57;;;8.77;;
51098;SDS011;37146;48.210;16.234;2022-07-22T03:27:25;14.98;;;9.07;;
51098;SDS011;37146;48.210;16.234;2022-07-22T03:29:51;10.20;;;8.20;;
51098;SDS011;37146;48.210;16.234;2022-07-22T03:32:16;11.15;;;8.88;;
51098;SDS011;37146;48.210;16.234;2022-07-22T03:34:42;9.50;;;8.10;;
51098;SDS011;37146;48.210;16.234;2022-07-22T03:37:07;10.18;;;8.57;;
51098;SDS011;37146;48.210;16.234;2022-07-22T03:39:32;13.10;;;9.25;;
51098;SDS011;37146;48.210;16.234;2022-07-22T03:41:58;11.27;;;9.02;;
51098;SDS011;37146;48.210;16.234;2022-07-22T03:44:24;11.98;;;9.07;;
51098;SDS011;37146;48.210;16.234;2022-07-22T03:46:49;10.10;;;8.32;;
51098;SDS011;37146;48.210;16.234;2022-07-22T03:49:15;11.18;;;8.27;;
51098;SDS011;37146;48.210;16.234;2022-07-22T03:51:40;10.93;;;8.73;;
51098;SDS011;37146;48.210;16.234;2022-07-22T03:54:06;10.68;;;8.52;;
51098;SDS011;37146;48.210;16.234;2022-07-22T03:56:31;10.63;;;8.55;;
51098;SDS011;37146;48.210;16.234;2022-07-22T03:58:56;11.10;;;8.80;;
51098;SDS011;37146;48.210;16.234;2022-07-22T04:01:22;10.98;;;9.07;;
51098;SDS011;37146;48.210;16.234;2022-07-22T04:03:47;9.05;;;8.02;;
51098;SDS011;37146;48.210;16.234;2022-07-22T04:06:13;10.50;;;8.43;;
51098;SDS011;37146;48.210;16.234;2022-07-22T04:08:39;9.65;;;8.65;;
51098;SDS011;37146;48.210;16.234;2022-07-22T04:11:05;11.90;;;8.88;;
51098;SDS011;37146;48.210;16.234;2022-07-22T04:13:30;13.52;;;9.48;;
51098;SDS011;37146;48.210;16.234;2022-07-22T04:15:56;12.35;;;8.65;;
51098;SDS011;37146;48.210;16.234;2022-07-22T04:18:21;11.88;;;9.15;;
51098;SDS011;37146;48.210;16.234;2022-07-22T04:20:46;11.38;;;8.48;;
51098;SDS011;37146;48.210;16.234;2022-07-22T04:23:12;13.15;;;8.50;;
51098;SDS011;37146;48.210;16.234;2022-07-22T04:25:37;12.57;;;8.43;;
51098;SDS011;37146;48.210;16.234;2022-07-22T04:28:03;10.38;;;9.20;;
51098;SDS011;37146;48.210;16.234;2022-07-22T04:30:28;11.40;;;8.68;;
51098;SDS011;37146;48.210;16.234;2022-07-22T04:32:54;13.15;;;8.98;;
51098;SDS011;37146;48.210;16.234;2022-07-22T04:35:19;12.88;;;8.70;;
51098;SDS011;37146;48.210;16.234;2022-07-22T04:37:45;11.02;;;8.60;;
51098;SDS011;37146;48.210;16.234;2022-07-22T04:40:10;12.00;;;8.57;;
51098;SDS011;37146;48.210;16.234;2022-07-22T04:42:36;12.82;;;9.23;;
51098;SDS011;37146;48.210;16.234;2022-07-22T04:45:02;10.45;;;8.80;;
51098;SDS011;37146;48.210;16.234;2022-07-22T04:47:28;10.10;;;8.57;;
51098;SDS011;37146;48.210;16.234;2022-07-22T04:49:53;11.20;;;8.80;;
51098;SDS011;37146;48.210;16.234;2022-07-22T04:52:18;12.05;;;9.02;;
51098;SDS011;37146;48.210;16.234;2022-07-22T04:54:44;12.02;;;8.80;;
51098;SDS011;37146;48.210;16.234;2022-07-22T04:57:09;10.80;;;8.80;;
51098;SDS011;37146;48.210;16.234;2022-07-22T04:59:35;12.00;;;9.15;;
51098;SDS011;37146;48.210;16.234;2022-07-22T05:02:00;10.40;;;8.52;;
51098;SDS011;37146;48.210;16.234;2022-07-22T05:04:25;10.20;;;8.68;;
51098;SDS011;37146;48.210;16.234;2022-07-22T05:06:51;11.50;;;9.05;;
51098;SDS011;37146;48.210;16.234;2022-07-22T05:09:16;9.73;;;8.25;;
51098;SDS011;37146;48.210;16.234;2022-07-22T05:11:41;12.25;;;8.90;;
51098;SDS011;37146;48.210;16.234;2022-07-22T05:14:07;10.38;;;8.55;;
51098;SDS011;37146;48.210;16.234;2022-07-22T05:16:32;11.70;;;8.70;;
51098;SDS011;37146;48.210;16.234;2022-07-22T05:19:02;9.93;;;8.70;;
51098;SDS011;37146;48.210;16.234;2022-07-22T05:21:27;11.98;;;8.18;;
51098;SDS011;37146;48.210;16.234;2022-07-22T05:23:52;10.25;;;8.32;;
51098;SDS011;37146;48.210;16.234;2022-07-22T05:26:18;11.18;;;8.38;;
51098;SDS011;37146;48.210;16.234;2022-07-22T05:28:43;13.82;;;9.00;;
51098;SDS011;37146;48.210;16.234;2022-07-22T05:31:08;11.02;;;8.60;;
51098;SDS011;37146;48.210;16.234;2022-07-22T05:33:34;9.70;;;8.38;;
51098;SDS011;37146;48.210;16.234;2022-07-22T05:35:59;9.80;;;8.48;;
51098;SDS011;37146;48.210;16.234;2022-07-22T05:38:24;11.07;;;8.93;;
51098;SDS011;37146;48.210;16.234;2022-07-22T05:40:50;11.35;;;8.82;;
51098;SDS011;37146;48.210;16.234;2022-07-22T05:43:15;11.63;;;8.57;;
51098;SDS011;37146;48.210;16.234;2022-07-22T05:45:41;11.05;;;8.60;;
51098;SDS011;37146;48.210;16.234;2022-07-22T05:48:06;10.73;;;7.88;;
51098;SDS011;37146;48.210;16.234;2022-07-22T05:50:31;10.85;;;8.20;;
51098;SDS011;37146;48.210;16.234;2022-07-22T05:52:57;9.68;;;8.50;;
51098;SDS011;37146;48.210;16.234;2022-07-22T05:55:22;10.10;;;8.75;;
51098;SDS011;37146;48.210;16.234;2022-07-22T05:57:48;9.88;;;8.48;;
51098;SDS011;37146;48.210;16.234;2022-07-22T06:00:13;10.75;;;9.10;;
51098;SDS011;37146;48.210;16.234;2022-07-22T06:02:39;9.60;;;8.50;;
51098;SDS011;37146;48.210;16.234;2022-07-22T06:05:05;10.43;;;8.63;;
51098;SDS011;37146;48.210;16.234;2022-07-22T06:07:30;9.40;;;7.75;;
51098;SDS011;37146;48.210;16.234;2022-07-22T06:09:56;11.82;;;8.60;;
51098;SDS011;37146;48.210;16.234;2022-07-22T06:12:22;12.40;;;8.90;;
51098;SDS011;37146;48.210;16.234;2022-07-22T06:14:48;9.88;;;8.30;;
51098;SDS011;37146;48.210;16.234;2022-07-22T06:17:13;10.98;;;8.43;;
51098;SDS011;37146;48.210;16.234;2022-07-22T06:19:39;9.25;;;8.02;;
51098;SDS011;37146;48.210;16.234;2022-07-22T06:22:04;9.13;;;8.05;;
51098;SDS011;37146;48.210;16.234;2022-07-22T06:24:30;13.15;;;8.45;;
51098;SDS011;37146;48.210;16.234;2022-07-22T06:26:55;12.43;;;8.63;;
51098;SDS011;37146;48.210;16.234;2022-07-22T06:29:20;10.93;;;9.45;;
51098;SDS011;37146;48.210;16.234;2022-07-22T06:31:46;10.45;;;8.50;;
51098;SDS011;37146;48.210;16.234;2022-07-22T06:34:11;8.77;;;7.88;;
51098;SDS011;37146;48.210;16.234;2022-07-22T06:36:36;9.30;;;8.30;;
51098;SDS011;37146;48.210;16.234;2022-07-22T06:39:02;10.15;;;7.75;;
51098;SDS011;37146;48.210;16.234;2022-07-22T06:41:27;10.20;;;7.80;;
51098;SDS011;37146;48.210;16.234;2022-07-22T06:43:53;10.43;;;8.20;;
51098;SDS011;37146;48.210;16.234;2022-07-22T06:46:18;11.20;;;7.65;;
51098;SDS011;37146;48.210;16.234;2022-07-22T06:48:44;11.18;;;8.07;;
51098;SDS011;37146;48.210;16.234;2022-07-22T06:51:09;8.63;;;7.43;;
51098;SDS011;37146;48.210;16.234;2022-07-22T06:53:35;9.57;;;7.88;;
51098;SDS011;37146;48.210;16.234;2022-07-22T06:56:00;11.93;;;8.63;;
51098;SDS011;37146;48.210;16.234;2022-07-22T06:58:26;9.60;;;8.07;;
51098;SDS011;37146;48.210;16.234;2022-07-22T07:00:51;9.88;;;8.00;;
51098;SDS011;37146;48.210;16.234;2022-07-22T07:03:16;9.77;;;8.23;;
51098;SDS011;37146;48.210;16.234;2022-07-22T07:05:42;8.93;;;8.02;;
51098;SDS011;37146;48.210;16.234;2022-07-22T07:08:07;9.77;;;8.60;;
51098;SDS011;37146;48.210;16.234;2022-07-22T07:10:33;10.75;;;8.00;;
51098;SDS011;37146;48.210;16.234;2022-07-22T07:12:58;9.60;;;8.07;;
51098;SDS011;37146;48.210;16.234;2022-07-22T07:15:24;9.05;;;8.15;;
51098;SDS011;37146;48.210;16.234;2022-07-22T07:17:50;10.52;;;8.20;;
51098;SDS011;37146;48.210;16.234;2022-07-22T07:20:21;9.13;;;7.88;;
51098;SDS011;37146;48.210;16.234;2022-07-22T07:22:47;9.25;;;8.00;;
51098;SDS011;37146;48.210;16.234;2022-07-22T07:25:12;9.88;;;8.43;;
51098;SDS011;37146;48.210;16.234;2022-07-22T07:27:37;9.85;;;8.07;;
51098;SDS011;37146;48.210;16.234;2022-07-22T07:30:03;9.02;;;7.93;;
51098;SDS011;37146;48.210;16.234;2022-07-22T07:32:30;10.98;;;8.05;;
51098;SDS011;37146;48.210;16.234;2022-07-22T07:34:55;10.48;;;7.95;;
51098;SDS011;37146;48.210;16.234;2022-07-22T07:37:21;10.90;;;8.25;;
51098;SDS011;37146;48.210;16.234;2022-07-22T07:39:46;10.75;;;7.97;;
51098;SDS011;37146;48.210;16.234;2022-07-22T07:42:12;12.18;;;8.10;;
51098;SDS011;37146;48.210;16.234;2022-07-22T07:44:37;13.60;;;8.15;;
51098;SDS011;37146;48.210;16.234;2022-07-22T07:47:03;11.43;;;8.52;;
51098;SDS011;37146;48.210;16.234;2022-07-22T07:49:28;9.98;;;8.00;;
51098;SDS011;37146;48.210;16.234;2022-07-22T07:51:54;10.38;;;8.15;;
51098;SDS011;37146;48.210;16.234;2022-07-22T07:54:19;8.98;;;7.47;;
51098;SDS011;37146;48.210;16.234;2022-07-22T07:56:45;10.07;;;8.43;;
51098;SDS011;37146;48.210;16.234;2022-07-22T07:59:10;9.32;;;7.90;;
51098;SDS011;37146;48.210;16.234;2022-07-22T08:01:36;10.55;;;8.15;;
51098;SDS011;37146;48.210;16.234;2022-07-22T08:04:01;9.55;;;7.90;;
51098;SDS011;37146;48.210;16.234;2022-07-22T08:06:27;10.98;;;8.23;;
51098;SDS011;37146;48.210;16.234;2022-07-22T08:08:52;9.75;;;7.55;;
51098;SDS011;37146;48.210;16.234;2022-07-22T08:11:18;10.07;;;8.65;;
51098;SDS011;37146;48.210;16.234;2022-07-22T08:13:43;11.15;;;7.80;;
51098;SDS011;37146;48.210;16.234;2022-07-22T08:16:09;9.10;;;7.80;;
51098;SDS011;37146;48.210;16.234;2022-07-22T08:18:35;8.55;;;7.57;;
51098;SDS011;37146;48.210;16.234;2022-07-22T08:21:00;7.78;;;6.97;;
51098;SDS011;37146;48.210;16.234;2022-07-22T08:23:26;9.52;;;7.22;;
51098;SDS011;37146;48.210;16.234;2022-07-22T08:25:51;9.85;;;8.40;;
51098;SDS011;37146;48.210;16.234;2022-07-22T08:28:17;8.13;;;7.28;;
51098;SDS011;37146;48.210;16.234;2022-07-22T08:30:42;8.02;;;7.22;;
51098;SDS011;37146;48.210;16.234;2022-07-22T08:33:08;9.38;;;7.35;;
51098;SDS011;37146;48.210;16.234;2022-07-22T08:35:34;8.13;;;6.97;;
51098;SDS011;37146;48.210;16.234;2022-07-22T08:37:59;9.52;;;7.63;;
51098;SDS011;37146;48.210;16.234;2022-07-22T08:40:25;7.65;;;6.88;;
51098;SDS011;37146;48.210;16.234;2022-07-22T08:42:51;9.85;;;7.82;;
51098;SDS011;37146;48.210;16.234;2022-07-22T08:45:17;10.27;;;7.90;;
51098;SDS011;37146;48.210;16.234;2022-07-22T08:47:51;10.27;;;7.68;;
51098;SDS011;37146;48.210;16.234;2022-07-22T08:50:17;9.55;;;8.07;;
51098;SDS011;37146;48.210;16.234;2022-07-22T08:52:43;8.65;;;7.80;;
51098;SDS011;37146;48.210;16.234;2022-07-22T08:55:09;10.05;;;7.40;;
51098;SDS011;37146;48.210;16.234;2022-07-22T08:57:34;10.20;;;7.07;;
51098;SDS011;37146;48.210;16.234;2022-07-22T09:00:02;10.18;;;7.57;;
51098;SDS011;37146;48.210;16.234;2022-07-22T09:02:37;9.45;;;6.63;;
51098;SDS011;37146;48.210;16.234;2022-07-22T09:05:05;8.88;;;7.05;;
51098;SDS011;37146;48.210;16.234;2022-07-22T09:07:33;9.30;;;8.02;;
51098;SDS011;37146;48.210;16.234;2022-07-22T09:10:06;10.15;;;7.43;;
51098;SDS011;37146;48.210;16.234;2022-07-22T09:12:33;8.38;;;6.88;;
51098;SDS011;37146;48.210;16.234;2022-07-22T09:15:00;7.45;;;6.65;;
51098;SDS011;37146;48.210;16.234;2022-07-22T09:20:04;7.70;;;6.35;;
51098;SDS011;37146;48.210;16.234;2022-07-22T09:22:42;7.20;;;6.50;;
51098;SDS011;37146;48.210;16.234;2022-07-22T09:27:47;8.82;;;6.45;;
51098;SDS011;37146;48.210;16.234;2022-07-22T09:30:15;6.97;;;6.18;;
51098;SDS011;37146;48.210;16.234;2022-07-22T09:32:48;8.32;;;5.63;;
51098;SDS011;37146;48.210;16.234;2022-07-22T09:35:14;8.40;;;5.90;;
51098;SDS011;37146;48.210;16.234;2022-07-22T09:38:14;6.88;;;6.18;;
51098;SDS011;37146;48.210;16.234;2022-07-22T09:40:42;7.15;;;5.28;;
51098;SDS011;37146;48.210;16.234;2022-07-22T09:43:15;8.98;;;6.50;;
51098;SDS011;37146;48.210;16.234;2022-07-22T09:45:50;6.95;;;5.63;;
51098;SDS011;37146;48.210;16.234;2022-07-22T09:48:19;7.68;;;5.15;;
51098;SDS011;37146;48.210;16.234;2022-07-22T09:50:45;6.07;;;5.35;;
51098;SDS011;37146;48.210;16.234;2022-07-22T09:53:11;6.35;;;5.10;;
51098;SDS011;37146;48.210;16.234;2022-07-22T09:55:37;9.07;;;5.10;;
51098;SDS011;37146;48.210;16.234;2022-07-22T09:58:04;8.30;;;6.03;;
51098;SDS011;37146;48.210;16.234;2022-07-22T10:00:30;6.07;;;5.20;;
51098;SDS011;37146;48.210;16.234;2022-07-22T10:03:00;6.15;;;5.38;;
51098;SDS011;37146;48.210;16.234;2022-07-22T10:05:32;7.63;;;5.88;;
51098;SDS011;37146;48.210;16.234;2022-07-22T10:08:00;7.28;;;5.68;;
51098;SDS011;37146;48.210;16.234;2022-07-22T10:10:27;7.53;;;5.82;;
51098;SDS011;37146;48.210;16.234;2022-07-22T10:12:55;6.85;;;5.82;;
51098;SDS011;37146;48.210;16.234;2022-07-22T10:15:22;10.10;;;6.07;;
51098;SDS011;37146;48.210;16.234;2022-07-22T10:17:51;6.55;;;5.95;;
51098;SDS011;37146;48.210;16.234;2022-07-22T10:20:22;9.43;;;5.63;;
51098;SDS011;37146;48.210;16.234;2022-07-22T10:22:53;9.43;;;5.93;;
51098;SDS011;37146;48.210;16.234;2022-07-22T10:25:24;6.30;;;5.22;;
51098;SDS011;37146;48.210;16.234;2022-07-22T10:30:23;6.93;;;5.47;;
51098;SDS011;37146;48.210;16.234;2022-07-22T10:33:11;6.47;;;5.25;;
51098;SDS011;37146;48.210;16.234;2022-07-22T10:35:56;6.85;;;5.53;;
51098;SDS011;37146;48.210;16.234;2022-07-22T10:38:23;7.35;;;5.43;;
51098;SDS011;37146;48.210;16.234;2022-07-22T10:41:03;6.03;;;5.43;;
51098;SDS011;37146;48.210;16.234;2022-07-22T10:43:30;5.82;;;4.93;;
51098;SDS011;37146;48.210;16.234;2022-07-22T10:46:10;7.25;;;4.90;;
51098;SDS011;37146;48.210;16.234;2022-07-22T10:51:08;5.47;;;4.83;;
51098;SDS011;37146;48.210;16.234;2022-07-22T10:53:39;7.68;;;4.75;;
51098;SDS011;37146;48.210;16.234;2022-07-22T10:56:14;6.00;;;4.85;;
51098;SDS011;37146;48.210;16.234;2022-07-22T11:01:17;5.35;;;4.80;;
51098;SDS011;37146;48.210;16.234;2022-07-22T11:03:45;4.85;;;4.20;;
51098;SDS011;37146;48.210;16.234;2022-07-22T11:14:03;4.80;;;4.28;;
51098;SDS011;37146;48.210;16.234;2022-07-22T11:16:35;4.70;;;3.85;;
51098;SDS011;37146;48.210;16.234;2022-07-22T11:19:01;4.95;;;4.20;;
51098;SDS011;37146;48.210;16.234;2022-07-22T11:21:30;6.13;;;4.18;;
51098;SDS011;37146;48.210;16.234;2022-07-22T11:23:58;4.50;;;3.90;;
51098;SDS011;37146;48.210;16.234;2022-07-22T11:26:40;6.15;;;4.20;;
51098;SDS011;37146;48.210;16.234;2022-07-22T11:29:08;4.07;;;3.67;;
51098;SDS011;37146;48.210;16.234;2022-07-22T11:31:34;5.28;;;3.70;;
51098;SDS011;37146;48.210;16.234;2022-07-22T11:34:05;4.25;;;3.80;;
51098;SDS011;37146;48.210;16.234;2022-07-22T11:36:35;6.32;;;3.92;;
51098;SDS011;37146;48.210;16.234;2022-07-22T11:39:03;6.07;;;4.20;;
51098;SDS011;37146;48.210;16.234;2022-07-22T11:41:30;5.57;;;3.97;;
51098;SDS011;37146;48.210;16.234;2022-07-22T11:43:56;5.30;;;4.10;;
51098;SDS011;37146;48.210;16.234;2022-07-22T11:46:23;6.68;;;3.92;;
51098;SDS011;37146;48.210;16.234;2022-07-22T11:48:50;4.57;;;3.90;;
51098;SDS011;37146;48.210;16.234;2022-07-22T11:51:17;4.47;;;3.95;;
51098;SDS011;37146;48.210;16.234;2022-07-22T11:53:42;6.18;;;4.13;;
51098;SDS011;37146;48.210;16.234;2022-07-22T11:56:08;7.50;;;3.88;;
51098;SDS011;37146;48.210;16.234;2022-07-22T12:01:13;4.32;;;3.70;;
51098;SDS011;37146;48.210;16.234;2022-07-22T12:03:44;5.68;;;4.00;;
51098;SDS011;37146;48.210;16.234;2022-07-22T12:06:12;4.38;;;3.85;;
51098;SDS011;37146;48.210;16.234;2022-07-22T12:08:39;5.70;;;4.18;;
51098;SDS011;37146;48.210;16.234;2022-07-22T12:11:10;5.72;;;4.40;;
51098;SDS011;37146;48.210;16.234;2022-07-22T12:13:41;4.53;;;4.10;;
51098;SDS011;37146;48.210;16.234;2022-07-22T12:16:22;6.82;;;4.53;;
51098;SDS011;37146;48.210;16.234;2022-07-22T12:18:53;6.00;;;4.38;;
51098;SDS011;37146;48.210;16.234;2022-07-22T12:21:19;5.93;;;4.60;;
51098;SDS011;37146;48.210;16.234;2022-07-22T12:23:52;5.10;;;4.60;;
51098;SDS011;37146;48.210;16.234;2022-07-22T12:31:53;6.55;;;4.88;;
51098;SDS011;37146;48.210;16.234;2022-07-22T12:34:43;5.25;;;4.60;;
51098;SDS011;37146;48.210;16.234;2022-07-22T12:37:26;8.02;;;5.18;;
51098;SDS011;37146;48.210;16.234;2022-07-22T12:40:09;8.57;;;5.55;;
51098;SDS011;37146;48.210;16.234;2022-07-22T12:42:38;7.60;;;5.30;;
51098;SDS011;37146;48.210;16.234;2022-07-22T12:45:12;7.85;;;5.63;;
51098;SDS011;37146;48.210;16.234;2022-07-22T12:50:21;9.38;;;5.75;;
51098;SDS011;37146;48.210;16.234;2022-07-22T12:52:47;6.13;;;5.50;;
51098;SDS011;37146;48.210;16.234;2022-07-22T12:55:13;6.47;;;5.88;;
51098;SDS011;37146;48.210;16.234;2022-07-22T12:57:39;7.00;;;5.80;;
51098;SDS011;37146;48.210;16.234;2022-07-22T13:00:05;7.85;;;5.95;;
51098;SDS011;37146;48.210;16.234;2022-07-22T13:02:31;7.22;;;5.75;;
51098;SDS011;37146;48.210;16.234;2022-07-22T13:04:56;6.57;;;5.93;;
51098;SDS011;37146;48.210;16.234;2022-07-22T13:07:21;8.88;;;6.03;;
51098;SDS011;37146;48.210;16.234;2022-07-22T13:09:47;8.43;;;6.00;;
51098;SDS011;37146;48.210;16.234;2022-07-22T13:12:12;7.45;;;6.40;;
51098;SDS011;37146;48.210;16.234;2022-07-22T13:14:37;7.10;;;6.40;;
51098;SDS011;37146;48.210;16.234;2022-07-22T13:17:03;9.85;;;6.63;;
51098;SDS011;37146;48.210;16.234;2022-07-22T13:19:28;6.90;;;5.50;;
51098;SDS011;37146;48.210;16.234;2022-07-22T13:21:54;6.93;;;6.10;;
51098;SDS011;37146;48.210;16.234;2022-07-22T13:24:19;6.93;;;6.22;;
51098;SDS011;37146;48.210;16.234;2022-07-22T13:26:45;6.80;;;5.93;;
51098;SDS011;37146;48.210;16.234;2022-07-22T13:29:10;7.15;;;6.45;;
51098;SDS011;37146;48.210;16.234;2022-07-22T13:31:37;8.02;;;6.30;;
51098;SDS011;37146;48.210;16.234;2022-07-22T13:34:02;7.00;;;5.90;;
51098;SDS011;37146;48.210;16.234;2022-07-22T13:36:27;6.88;;;6.18;;
51098;SDS011;37146;48.210;16.234;2022-07-22T13:38:53;9.20;;;6.10;;
51098;SDS011;37146;48.210;16.234;2022-07-22T13:41:19;7.03;;;5.97;;
51098;SDS011;37146;48.210;16.234;2022-07-22T13:43:45;6.85;;;6.15;;
51098;SDS011;37146;48.210;16.234;2022-07-22T13:46:11;8.88;;;6.25;;
51098;SDS011;37146;48.210;16.234;2022-07-22T13:48:37;9.57;;;6.50;;
51098;SDS011;37146;48.210;16.234;2022-07-22T13:51:02;7.95;;;6.50;;
51098;SDS011;37146;48.210;16.234;2022-07-22T13:53:29;7.93;;;6.80;;
51098;SDS011;37146;48.210;16.234;2022-07-22T13:55:55;7.35;;;6.65;;
51098;SDS011;37146;48.210;16.234;2022-07-22T13:58:20;11.18;;;7.00;;
51098;SDS011;37146;48.210;16.234;2022-07-22T14:00:46;8.40;;;6.85;;
51098;SDS011;37146;48.210;16.234;2022-07-22T14:03:12;8.10;;;6.80;;
51098;SDS011;37146;48.210;16.234;2022-07-22T14:05:37;7.22;;;6.53;;
51098;SDS011;37146;48.210;16.234;2022-07-22T14:08:03;8.68;;;6.78;;
51098;SDS011;37146;48.210;16.234;2022-07-22T14:10:28;7.57;;;6.50;;
51098;SDS011;37146;48.210;16.234;2022-07-22T14:12:54;7.40;;;6.40;;
51098;SDS011;37146;48.210;16.234;2022-07-22T14:15:19;8.45;;;6.70;;
51098;SDS011;37146;48.210;16.234;2022-07-22T14:17:45;11.35;;;7.15;;
51098;SDS011;37146;48.210;16.234;2022-07-22T14:20:11;7.47;;;6.63;;
51098;SDS011;37146;48.210;16.234;2022-07-22T14:22:36;9.07;;;6.78;;
51098;SDS011;37146;48.210;16.234;2022-07-22T14:25:02;8.35;;;7.18;;
51098;SDS011;37146;48.210;16.234;2022-07-22T14:27:28;9.30;;;7.10;;
51098;SDS011;37146;48.210;16.234;2022-07-22T14:29:53;9.40;;;7.38;;
51098;SDS011;37146;48.210;16.234;2022-07-22T14:32:19;9.80;;;6.95;;
51098;SDS011;37146;48.210;16.234;2022-07-22T14:34:44;9.07;;;7.00;;
51098;SDS011;37146;48.210;16.234;2022-07-22T14:37:09;9.40;;;6.82;;
51098;SDS011;37146;48.210;16.234;2022-07-22T14:39:35;8.35;;;6.95;;
51098;SDS011;37146;48.210;16.234;2022-07-22T14:42:00;8.27;;;7.07;;
51098;SDS011;37146;48.210;16.234;2022-07-22T14:44:26;13.65;;;7.28;;
51098;SDS011;37146;48.210;16.234;2022-07-22T14:46:51;7.30;;;6.60;;
51098;SDS011;37146;48.210;16.234;2022-07-22T14:49:17;10.45;;;7.68;;
51098;SDS011;37146;48.210;16.234;2022-07-22T14:51:43;8.50;;;7.55;;
51098;SDS011;37146;48.210;16.234;2022-07-22T14:54:08;11.05;;;7.40;;
51098;SDS011;37146;48.210;16.234;2022-07-22T14:56:36;7.47;;;6.78;;